createdAt,value
2023-05-24T00:00:32.434Z,950.6334
2023-05-24T00:01:34.126Z,950.6122
2023-05-24T00:02:35.922Z,950.5989
2023-05-24T00:03:37.833Z,950.5889
2023-05-24T00:04:39.591Z,950.5784
2023-05-24T00:05:41.260Z,950.5583
2023-05-24T00:06:42.905Z,950.5461
2023-05-24T00:07:44.608Z,950.5383
2023-05-24T00:08:46.280Z,950.5328
2023-05-24T00:09:47.962Z,950.5306
2023-05-24T00:10:49.639Z,950.5239
2023-05-24T00:11:51.322Z,950.5200
2023-05-24T00:12:53.003Z,950.5139
2023-05-24T00:13:54.693Z,950.5028
2023-05-24T00:14:56.385Z,950.5089
2023-05-24T00:15:58.065Z,950.5089
2023-05-24T00:16:59.733Z,950.5061
2023-05-24T00:18:01.568Z,950.5067
2023-05-24T00:19:03.265Z,950.4989
2023-05-24T00:20:07.290Z,950.5016
2023-05-24T00:21:05.761Z,950.5095
2023-05-24T00:22:07.467Z,950.5047
2023-05-24T00:23:09.141Z,950.5072
2023-05-24T00:24:10.846Z,950.5184
2023-05-24T00:25:12.538Z,950.5078
2023-05-24T00:26:14.202Z,950.5061
2023-05-24T00:27:15.909Z,950.5067
2023-05-24T00:28:17.569Z,950.5045
2023-05-24T00:29:19.269Z,950.5039
2023-05-24T00:30:20.975Z,950.5139
2023-05-24T00:31:22.704Z,950.5139
2023-05-24T00:32:24.369Z,950.5178
2023-05-24T00:33:26.055Z,950.5195
2023-05-24T00:34:27.732Z,950.5034
2023-05-24T00:35:29.412Z,950.4939
2023-05-24T00:36:31.176Z,950.4933
2023-05-24T00:37:32.811Z,950.4855
2023-05-24T00:38:34.482Z,950.4883
2023-05-24T00:39:36.158Z,950.4889
2023-05-24T00:40:38.879Z,950.4966
2023-05-24T00:41:40.675Z,950.5084
2023-05-24T00:42:42.588Z,950.5106
2023-05-24T00:43:44.513Z,950.5145
2023-05-24T00:44:46.185Z,950.5178
2023-05-24T00:45:47.880Z,950.5089
2023-05-24T00:46:49.526Z,950.5067
2023-05-24T00:47:51.260Z,950.5106
2023-05-24T00:48:52.915Z,950.4861
2023-05-24T00:49:54.596Z,950.4861
2023-05-24T00:50:56.261Z,950.4844
2023-05-24T00:51:57.965Z,950.4772
2023-05-24T00:52:59.659Z,950.4672
2023-05-24T00:54:02.359Z,950.4805
2023-05-24T00:55:04.053Z,950.4844
2023-05-24T00:56:05.727Z,950.4805
2023-05-24T00:57:07.389Z,950.4828
2023-05-24T00:58:09.086Z,950.4800
2023-05-24T00:59:10.763Z,950.4778
2023-05-24T01:00:12.452Z,950.4828
2023-05-24T01:01:14.147Z,950.4722
2023-05-24T01:02:15.841Z,950.4667
2023-05-24T01:03:17.661Z,950.4517
2023-05-24T01:04:19.555Z,950.4683
2023-05-24T01:05:21.477Z,950.4800
2023-05-24T01:06:24.522Z,950.4872
2023-05-24T01:07:26.410Z,950.5016
2023-05-24T01:08:28.328Z,950.5000
2023-05-24T01:09:30.242Z,950.4984
2023-05-24T01:10:32.194Z,950.4950
2023-05-24T01:11:34.087Z,950.4822
2023-05-24T01:12:36.012Z,950.4816
2023-05-24T01:13:37.931Z,950.4833
2023-05-24T01:14:39.863Z,950.4606
2023-05-24T01:15:41.811Z,950.4500
2023-05-24T01:16:43.757Z,950.4639
2023-05-24T01:17:45.709Z,950.4728
2023-05-24T01:18:47.605Z,950.4839
2023-05-24T01:19:49.637Z,950.4572
2023-05-24T01:20:51.612Z,950.4500
2023-05-24T01:21:53.516Z,950.4339
2023-05-24T01:22:55.440Z,950.4128
2023-05-24T01:23:57.138Z,950.3995
2023-05-24T01:24:58.836Z,950.3900
2023-05-24T01:26:00.740Z,950.4022
2023-05-24T01:27:02.658Z,950.4233
2023-05-24T01:28:04.558Z,950.4228
2023-05-24T01:29:06.499Z,950.4183
2023-05-24T01:30:08.209Z,950.4161
2023-05-24T01:31:09.891Z,950.4139
2023-05-24T01:32:11.586Z,950.4150
2023-05-24T01:33:13.259Z,950.4255
2023-05-24T01:34:14.949Z,950.4033
2023-05-24T01:35:16.610Z,950.4006
2023-05-24T01:36:18.290Z,950.3978
2023-05-24T01:37:20.041Z,950.3806
2023-05-24T01:38:21.711Z,950.3561
2023-05-24T01:39:23.426Z,950.3328
2023-05-24T01:40:25.125Z,950.3322
2023-05-24T01:41:26.801Z,950.3278
2023-05-24T01:42:28.718Z,950.3289
2023-05-24T01:43:30.651Z,950.3339
2023-05-24T01:44:32.563Z,950.3378
2023-05-24T01:45:34.499Z,950.3433
2023-05-24T01:46:36.441Z,950.3600
2023-05-24T01:47:38.397Z,950.3616
2023-05-24T01:48:40.288Z,950.3739
2023-05-24T01:49:42.194Z,950.3428
2023-05-24T01:50:44.271Z,950.3389
2023-05-24T01:51:46.240Z,950.3356
2023-05-24T01:52:48.173Z,950.3578
2023-05-24T01:53:50.112Z,950.3633
2023-05-24T01:54:52.021Z,950.3511
2023-05-24T01:55:53.954Z,950.3289
2023-05-24T01:56:55.836Z,950.3361
2023-05-24T01:57:57.765Z,950.3433
2023-05-24T01:58:59.676Z,950.3539
2023-05-24T02:00:01.580Z,950.3578
2023-05-24T02:01:03.555Z,950.3761
2023-05-24T02:02:05.448Z,950.3784
2023-05-24T02:03:07.676Z,950.3705
2023-05-24T02:04:09.631Z,950.3789
2023-05-24T02:05:11.544Z,950.3605
2023-05-24T02:06:13.452Z,950.3378
2023-05-24T02:07:15.364Z,950.3616
2023-05-24T02:08:17.323Z,950.3572
2023-05-24T02:09:19.202Z,950.3444
2023-05-24T02:10:21.121Z,950.3400
2023-05-24T02:11:23.047Z,950.3467
2023-05-24T02:12:25.012Z,950.3422
2023-05-24T02:13:26.960Z,950.3400
2023-05-24T02:14:28.842Z,950.3367
2023-05-24T02:15:30.766Z,950.3339
2023-05-24T02:16:32.633Z,950.3222
2023-05-24T02:17:34.601Z,950.3278
2023-05-24T02:18:36.500Z,950.3250
2023-05-24T02:19:38.417Z,950.3178
2023-05-24T02:20:40.668Z,950.3105
2023-05-24T02:21:42.698Z,950.3078
2023-05-24T02:22:44.625Z,950.3139
2023-05-24T02:23:46.523Z,950.3267
2023-05-24T02:24:48.526Z,950.3284
2023-05-24T02:25:50.472Z,950.3439
2023-05-24T02:26:52.431Z,950.3594
2023-05-24T02:27:54.323Z,950.3372
2023-05-24T02:28:56.257Z,950.3406
2023-05-24T02:29:58.148Z,950.3639
2023-05-24T02:31:00.126Z,950.3378
2023-05-24T02:32:02.054Z,950.3383
2023-05-24T02:33:04.039Z,950.3384
2023-05-24T02:34:05.917Z,950.3328
2023-05-24T02:35:07.830Z,950.3289
2023-05-24T02:36:09.726Z,950.3350
2023-05-24T02:37:11.699Z,950.3517
2023-05-24T02:38:13.627Z,950.3561
2023-05-24T02:39:15.583Z,950.3678
2023-05-24T02:40:17.500Z,950.3978
2023-05-24T02:41:19.424Z,950.3995
2023-05-24T02:42:21.355Z,950.3950
2023-05-24T02:43:23.256Z,950.3939
2023-05-24T02:44:25.155Z,950.4294
2023-05-24T02:45:27.096Z,950.4144
2023-05-24T02:46:29.037Z,950.3800
2023-05-24T02:47:30.929Z,950.3594
2023-05-24T02:48:32.808Z,950.3467
2023-05-24T02:49:34.714Z,950.3289
2023-05-24T02:50:36.644Z,950.3200
2023-05-24T02:51:38.540Z,950.3200
2023-05-24T02:52:40.474Z,950.2928
2023-05-24T02:53:42.388Z,950.3217
2023-05-24T02:54:44.299Z,950.3278
2023-05-24T02:55:46.213Z,950.3189
2023-05-24T02:56:48.124Z,950.3289
2023-05-24T02:57:50.067Z,950.3039
2023-05-24T02:58:51.958Z,950.2828
2023-05-24T02:59:53.862Z,950.3111
2023-05-24T03:00:55.773Z,950.3134
2023-05-24T03:01:57.924Z,950.3033
2023-05-24T03:02:59.950Z,950.3295
2023-05-24T03:04:02.043Z,950.3039
2023-05-24T03:05:03.970Z,950.3128
2023-05-24T03:06:05.901Z,950.3228
2023-05-24T03:07:07.834Z,950.3195
2023-05-24T03:08:09.722Z,950.3217
2023-05-24T03:09:11.656Z,950.3272
2023-05-24T03:10:15.834Z,950.3156
2023-05-24T03:11:14.613Z,950.3256
2023-05-24T03:12:16.529Z,950.3235
2023-05-24T03:13:18.420Z,950.2966
2023-05-24T03:14:20.348Z,950.3044
2023-05-24T03:15:22.263Z,950.2994
2023-05-24T03:16:24.226Z,950.2900
2023-05-24T03:17:26.146Z,950.2511
2023-05-24T03:18:28.034Z,950.2283
2023-05-24T03:19:29.949Z,950.2272
2023-05-24T03:20:31.930Z,950.2261
2023-05-24T03:21:33.819Z,950.2228
2023-05-24T03:22:35.774Z,950.2400
2023-05-24T03:23:37.684Z,950.2294
2023-05-24T03:24:39.586Z,950.2394
2023-05-24T03:25:41.497Z,950.2461
2023-05-24T03:26:43.412Z,950.2422
2023-05-24T03:27:45.343Z,950.2217
2023-05-24T03:28:47.271Z,950.2378
2023-05-24T03:29:49.178Z,950.2422
2023-05-24T03:30:51.087Z,950.2350
2023-05-24T03:31:53.087Z,950.2322
2023-05-24T03:32:55.000Z,950.2311
2023-05-24T03:33:56.870Z,950.2428
2023-05-24T03:34:58.786Z,950.2500
2023-05-24T03:36:00.696Z,950.2522
2023-05-24T03:37:02.605Z,950.2484
2023-05-24T03:38:04.527Z,950.2394
2023-05-24T03:39:06.435Z,950.2466
2023-05-24T03:40:08.346Z,950.2595
2023-05-24T03:41:10.266Z,950.2961
2023-05-24T03:42:12.187Z,950.2867
2023-05-24T03:43:14.105Z,950.3178
2023-05-24T03:44:16.026Z,950.3172
2023-05-24T03:45:26.981Z,950.3367
2023-05-24T03:46:19.198Z,950.3444
2023-05-24T03:47:21.186Z,950.3513
2023-05-24T03:48:24.081Z,950.3522
2023-05-24T03:49:26.015Z,950.3472
2023-05-24T03:50:27.918Z,950.3494
2023-05-24T03:51:29.916Z,950.3544
2023-05-24T03:52:31.759Z,950.3517
2023-05-24T03:53:33.671Z,950.3389
2023-05-24T03:54:35.595Z,950.3378
2023-05-24T03:55:37.514Z,950.3261
2023-05-24T03:56:39.437Z,950.3250
2023-05-24T03:57:41.361Z,950.3533
2023-05-24T03:58:43.332Z,950.3489
2023-05-24T03:59:45.245Z,950.3600
2023-05-24T04:00:47.206Z,950.3572
2023-05-24T04:01:49.227Z,950.3600
2023-05-24T04:02:51.335Z,950.3572
2023-05-24T04:03:53.352Z,950.3594
2023-05-24T04:04:55.312Z,950.3745
2023-05-24T04:05:57.271Z,950.3655
2023-05-24T04:06:59.256Z,950.3616
2023-05-24T04:08:01.268Z,950.3734
2023-05-24T04:09:03.299Z,950.3716
2023-05-24T04:10:05.288Z,950.3689
2023-05-24T04:11:07.221Z,950.3600
2023-05-24T04:12:09.214Z,950.3483
2023-05-24T04:13:11.155Z,950.3422
2023-05-24T04:14:13.133Z,950.3150
2023-05-24T04:15:15.102Z,950.3039
2023-05-24T04:16:17.123Z,950.2922
2023-05-24T04:17:19.176Z,950.2883
2023-05-24T04:18:21.204Z,950.2922
2023-05-24T04:19:23.158Z,950.2922
2023-05-24T04:20:25.187Z,950.3094
2023-05-24T04:21:27.157Z,950.3139
2023-05-24T04:22:29.161Z,950.3372
2023-05-24T04:23:31.164Z,950.3322
2023-05-24T04:24:33.157Z,950.3472
2023-05-24T04:25:35.137Z,950.3417
2023-05-24T04:26:37.105Z,950.3500
2023-05-24T04:27:39.123Z,950.3583
2023-05-24T04:28:41.163Z,950.3555
2023-05-24T04:29:43.110Z,950.3267
2023-05-24T04:30:45.048Z,950.3066
2023-05-24T04:31:47.198Z,950.2811
2023-05-24T04:32:49.286Z,950.2867
2023-05-24T04:33:51.263Z,950.3139
2023-05-24T04:34:53.232Z,950.3161
2023-05-24T04:35:55.296Z,950.3039
2023-05-24T04:36:57.241Z,950.3039
2023-05-24T04:37:59.228Z,950.2955
2023-05-24T04:39:01.207Z,950.2734
2023-05-24T04:40:03.238Z,950.3022
2023-05-24T04:41:05.184Z,950.3073
2023-05-24T04:42:07.150Z,950.3016
2023-05-24T04:43:09.152Z,950.2950
2023-05-24T04:44:11.193Z,950.2667
2023-05-24T04:45:13.282Z,950.2595
2023-05-24T04:46:16.220Z,950.2889
2023-05-24T04:47:18.243Z,950.3112
2023-05-24T04:48:20.210Z,950.2839
2023-05-24T04:49:22.119Z,950.2911
2023-05-24T04:50:23.890Z,950.3000
2023-05-24T04:51:25.654Z,950.2972
2023-05-24T04:52:27.431Z,950.2872
2023-05-24T04:53:29.230Z,950.2861
2023-05-24T04:54:31.279Z,950.2861
2023-05-24T04:55:33.346Z,950.2761
2023-05-24T04:56:35.338Z,950.2811
2023-05-24T04:57:37.311Z,950.3011
2023-05-24T04:58:39.500Z,950.3234
2023-05-24T04:59:41.392Z,950.3428
2023-05-24T05:00:43.560Z,950.3411
2023-05-24T05:01:45.601Z,950.3544
2023-05-24T05:02:47.609Z,950.3705
2023-05-24T05:03:49.573Z,950.3789
2023-05-24T05:04:51.343Z,950.3834
2023-05-24T05:05:53.169Z,950.3834
2023-05-24T05:06:54.906Z,950.4028
2023-05-24T05:07:56.715Z,950.4350
2023-05-24T05:08:58.534Z,950.4667
2023-05-24T05:10:00.638Z,950.4567
2023-05-24T05:11:02.618Z,950.4644
2023-05-24T05:12:04.576Z,950.4728
2023-05-24T05:13:06.524Z,950.4905
2023-05-24T05:14:08.459Z,950.4955
2023-05-24T05:15:10.491Z,950.5167
2023-05-24T05:16:12.500Z,950.5095
2023-05-24T05:17:14.461Z,950.5122
2023-05-24T05:18:16.546Z,950.5161
2023-05-24T05:19:18.517Z,950.5089
2023-05-24T05:20:20.527Z,950.5239
2023-05-24T05:21:22.455Z,950.5367
2023-05-24T05:23:25.823Z,950.5333
2023-05-24T05:24:27.808Z,950.5386
2023-05-24T05:25:29.856Z,950.5522
2023-05-24T05:26:31.857Z,950.5555
2023-05-24T05:27:33.869Z,950.5594
2023-05-24T05:28:35.678Z,950.5516
2023-05-24T05:29:37.408Z,950.5745
2023-05-24T05:30:39.155Z,950.6005
2023-05-24T05:31:41.140Z,950.6150
2023-05-24T05:32:43.321Z,950.6328
2023-05-24T05:33:46.313Z,950.6495
2023-05-24T05:34:48.336Z,950.6439
2023-05-24T05:35:51.753Z,950.6766
2023-05-24T05:36:51.474Z,950.6766
2023-05-24T05:37:53.428Z,950.6824
2023-05-24T05:38:55.453Z,950.6855
2023-05-24T05:39:57.443Z,950.6828
2023-05-24T05:40:59.506Z,950.6700
2023-05-24T05:42:01.474Z,950.6578
2023-05-24T05:43:03.415Z,950.6489
2023-05-24T05:44:05.451Z,950.6422
2023-05-24T05:45:07.469Z,950.6600
2023-05-24T05:46:09.493Z,950.6578
2023-05-24T05:47:11.481Z,950.6633
2023-05-24T05:48:13.396Z,950.6666
2023-05-24T05:49:15.404Z,950.6744
2023-05-24T05:50:17.594Z,950.6906
2023-05-24T05:51:19.647Z,950.6733
2023-05-24T05:52:21.571Z,950.6700
2023-05-24T05:53:23.553Z,950.6572
2023-05-24T05:54:25.513Z,950.6406
2023-05-24T05:55:27.380Z,950.6211
2023-05-24T05:56:29.315Z,950.6128
2023-05-24T05:57:31.269Z,950.6350
2023-05-24T05:58:33.342Z,950.6328
2023-05-24T05:59:35.327Z,950.6200
2023-05-24T06:00:38.116Z,950.6216
2023-05-24T06:01:40.191Z,950.6278
2023-05-24T06:02:42.149Z,950.6428
2023-05-24T06:03:45.458Z,950.6517
2023-05-24T06:04:47.656Z,950.6511
2023-05-24T06:05:49.645Z,950.6511
2023-05-24T06:06:51.687Z,950.6805
2023-05-24T06:07:53.427Z,950.6783
2023-05-24T06:08:55.211Z,950.6628
2023-05-24T06:09:57.003Z,950.6583
2023-05-24T06:10:58.743Z,950.6628
2023-05-24T06:12:00.469Z,950.6816
2023-05-24T06:13:02.288Z,950.7039
2023-05-24T06:14:04.077Z,950.7172
2023-05-24T06:15:05.827Z,950.7211
2023-05-24T06:16:07.668Z,950.7366
2023-05-24T06:17:09.351Z,950.7350
2023-05-24T06:18:11.058Z,950.7316
2023-05-24T06:19:12.843Z,950.7095
2023-05-24T06:20:14.641Z,950.7144
2023-05-24T06:21:16.383Z,950.7361
2023-05-24T06:22:18.167Z,950.7117
2023-05-24T06:23:19.903Z,950.7167
2023-05-24T06:24:21.710Z,950.7022
2023-05-24T06:25:23.509Z,950.6984
2023-05-24T06:26:25.313Z,950.7083
2023-05-24T06:27:27.044Z,950.7250
2023-05-24T06:28:28.778Z,950.7316
2023-05-24T06:29:30.830Z,950.7455
2023-05-24T06:30:32.626Z,950.7516
2023-05-24T06:31:34.392Z,950.7528
2023-05-24T06:32:36.460Z,950.7516
2023-05-24T06:33:38.383Z,950.7728
2023-05-24T06:34:40.690Z,950.7872
2023-05-24T06:35:42.461Z,950.7833
2023-05-24T06:36:44.255Z,950.8150
2023-05-24T06:37:46.065Z,950.8372
2023-05-24T06:38:47.801Z,950.8278
2023-05-24T06:39:49.595Z,950.8272
2023-05-24T06:40:51.328Z,950.8150
2023-05-24T06:41:53.047Z,950.8361
2023-05-24T06:42:54.760Z,950.8428
2023-05-24T06:43:56.661Z,950.8517
2023-05-24T06:44:58.440Z,950.8528
2023-05-24T06:46:00.165Z,950.8500
2023-05-24T06:47:01.956Z,950.8594
2023-05-24T06:48:03.812Z,950.8750
2023-05-24T06:49:05.619Z,950.8711
2023-05-24T06:50:07.388Z,950.8700
2023-05-24T06:51:09.119Z,950.8650
2023-05-24T06:52:10.907Z,950.8566
2023-05-24T06:53:13.058Z,950.8722
2023-05-24T06:54:15.061Z,950.8544
2023-05-24T06:55:17.015Z,950.8772
2023-05-24T06:56:19.111Z,950.8811
2023-05-24T06:57:21.046Z,950.8666
2023-05-24T06:58:22.776Z,950.8483
2023-05-24T06:59:24.605Z,950.8678
2023-05-24T07:00:26.363Z,950.8745
2023-05-24T07:01:28.083Z,950.8906
2023-05-24T07:02:29.869Z,950.8845
2023-05-24T07:03:31.628Z,950.8839
2023-05-24T07:04:33.427Z,950.8839
2023-05-24T07:05:35.153Z,950.8939
2023-05-24T07:06:36.863Z,950.8784
2023-05-24T07:07:38.643Z,950.8784
2023-05-24T07:08:40.438Z,950.8678
2023-05-24T07:09:42.224Z,950.8550
2023-05-24T07:10:44.179Z,950.8605
2023-05-24T07:11:46.570Z,950.8589
2023-05-24T07:12:48.368Z,950.8633
2023-05-24T07:13:50.101Z,950.8761
2023-05-24T07:14:51.858Z,950.8766
2023-05-24T07:15:53.602Z,950.8811
2023-05-24T07:16:55.539Z,950.8895
2023-05-24T07:17:58.512Z,950.9050
2023-05-24T07:19:01.889Z,950.8967
2023-05-24T07:20:02.726Z,950.8972
2023-05-24T07:21:04.680Z,950.8882
2023-05-24T07:22:06.704Z,950.8972
2023-05-24T07:23:08.638Z,950.8956
2023-05-24T07:24:10.665Z,950.9050
2023-05-24T07:25:12.623Z,950.9061
2023-05-24T07:26:14.660Z,950.9111
2023-05-24T07:27:16.612Z,950.9216
2023-05-24T07:28:18.659Z,950.9244
2023-05-24T07:29:20.428Z,950.9384
2023-05-24T07:30:31.784Z,950.9294
2023-05-24T07:31:23.249Z,950.9456
2023-05-24T07:32:24.996Z,950.9500
2023-05-24T07:33:27.686Z,950.9717
2023-05-24T07:34:29.610Z,950.9805
2023-05-24T07:35:31.344Z,950.9800
2023-05-24T07:36:34.832Z,950.9833
2023-05-24T07:37:33.479Z,950.9706
2023-05-24T07:38:35.260Z,950.9576
2023-05-24T07:39:37.017Z,950.9522
2023-05-24T07:40:39.005Z,950.9584
2023-05-24T07:41:41.012Z,950.9661
2023-05-24T07:42:43.117Z,950.9678
2023-05-24T07:43:45.094Z,950.9722
2023-05-24T07:44:46.818Z,950.9717
2023-05-24T07:45:48.556Z,950.9750
2023-05-24T07:46:50.435Z,950.9783
2023-05-24T07:47:53.308Z,950.9772
2023-05-24T07:48:53.617Z,950.9766
2023-05-24T07:49:55.389Z,950.9788
2023-05-24T07:50:57.149Z,950.9545
2023-05-24T07:51:58.864Z,950.9600
2023-05-24T07:53:00.596Z,950.9511
2023-05-24T07:54:02.374Z,950.9456
2023-05-24T07:55:04.145Z,950.9495
2023-05-24T07:56:05.882Z,950.9333
2023-05-24T07:57:09.453Z,950.9344
2023-05-24T07:58:07.988Z,950.9406
2023-05-24T07:59:09.766Z,950.9347
2023-05-24T08:00:11.506Z,950.9355
2023-05-24T08:01:13.218Z,950.9333
2023-05-24T08:02:15.019Z,950.9400
2023-05-24T08:03:16.817Z,950.9522
2023-05-24T08:04:18.553Z,950.9761
2023-05-24T08:05:20.283Z,950.9811
2023-05-24T08:06:22.238Z,950.9894
2023-05-24T08:07:24.034Z,950.9961
2023-05-24T08:08:25.740Z,950.9755
2023-05-24T08:09:27.450Z,950.9984
2023-05-24T08:10:29.188Z,951.0161
2023-05-24T08:11:30.992Z,950.9939
2023-05-24T08:12:32.731Z,950.9766
2023-05-24T08:13:34.459Z,951.0072
2023-05-24T08:14:36.190Z,951.0189
2023-05-24T08:15:37.948Z,951.0350
2023-05-24T08:16:39.849Z,951.0400
2023-05-24T08:17:41.638Z,951.0139
2023-05-24T08:18:43.419Z,951.0134
2023-05-24T08:19:45.224Z,951.0145
2023-05-24T08:20:47.194Z,951.0045
2023-05-24T08:21:48.892Z,951.0272
2023-05-24T08:22:50.763Z,951.0350
2023-05-24T08:23:52.629Z,951.0461
2023-05-24T08:24:54.365Z,951.0550
2023-05-24T08:25:56.062Z,951.0378
2023-05-24T08:26:57.805Z,951.0555
2023-05-24T08:27:59.561Z,951.0505
2023-05-24T08:29:01.348Z,951.0611
2023-05-24T08:30:03.091Z,951.0656
2023-05-24T08:31:05.134Z,951.0706
2023-05-24T08:32:07.504Z,951.1011
2023-05-24T08:33:09.365Z,951.0906
2023-05-24T08:34:11.119Z,951.0883
2023-05-24T08:35:21.102Z,951.0983
2023-05-24T08:36:14.124Z,951.0756
2023-05-24T08:37:16.400Z,951.0950
2023-05-24T08:38:18.093Z,951.1161
2023-05-24T08:39:19.868Z,951.1011
2023-05-24T08:40:21.597Z,951.1311
2023-05-24T08:41:23.291Z,951.1556
2023-05-24T08:42:25.074Z,951.1372
2023-05-24T08:43:26.826Z,951.1489
2023-05-24T08:44:28.535Z,951.1739
2023-05-24T08:45:30.314Z,951.1489
2023-05-24T08:46:32.105Z,951.1934
2023-05-24T08:47:33.977Z,951.2128
2023-05-24T08:48:35.983Z,951.2255
2023-05-24T08:49:37.823Z,951.2355
2023-05-24T08:50:39.627Z,951.2522
2023-05-24T08:51:41.408Z,951.2689
2023-05-24T08:52:43.139Z,951.2611
2023-05-24T08:53:44.874Z,951.2689
2023-05-24T08:54:46.604Z,951.2678
2023-05-24T08:55:48.479Z,951.2584
2023-05-24T08:56:50.245Z,951.2595
2023-05-24T08:57:51.962Z,951.2656
2023-05-24T08:59:00.432Z,951.2789
2023-05-24T08:59:55.637Z,951.2600
2023-05-24T09:00:57.472Z,951.2706
2023-05-24T09:01:59.175Z,951.2878
2023-05-24T09:03:01.035Z,951.2905
2023-05-24T09:04:03.864Z,951.2911
2023-05-24T09:05:05.628Z,951.3005
2023-05-24T09:06:07.359Z,951.2756
2023-05-24T09:07:09.192Z,951.2672
2023-05-24T09:08:11.261Z,951.2878
2023-05-24T09:09:13.153Z,951.3139
2023-05-24T09:10:15.081Z,951.3222
2023-05-24T09:11:17.035Z,951.3378
2023-05-24T09:12:32.482Z,951.3655
2023-05-24T09:13:20.862Z,951.3639
2023-05-24T09:14:22.814Z,951.3744
2023-05-24T09:15:24.823Z,951.3845
2023-05-24T09:16:26.910Z,951.3856
2023-05-24T09:17:29.705Z,951.3845
2023-05-24T09:18:30.914Z,951.3939
2023-05-24T09:19:32.920Z,951.4000
2023-05-24T09:20:34.927Z,951.3961
2023-05-24T09:21:36.764Z,951.4022
2023-05-24T09:22:40.766Z,951.4155
2023-05-24T09:23:40.042Z,951.4133
2023-05-24T09:24:41.823Z,951.4212
2023-05-24T09:25:43.614Z,951.4384
2023-05-24T09:26:45.666Z,951.4567
2023-05-24T09:27:49.008Z,951.4511
2023-05-24T09:28:47.693Z,951.4600
2023-05-24T09:29:49.633Z,951.4541
2023-05-24T09:30:51.541Z,951.4539
2023-05-24T09:31:53.608Z,951.4561
2023-05-24T09:32:55.589Z,951.4556
2023-05-24T09:33:57.411Z,951.4472
2023-05-24T09:34:59.146Z,951.4350
2023-05-24T09:36:00.851Z,951.4333
2023-05-24T09:37:02.669Z,951.4216
2023-05-24T09:38:04.563Z,951.4328
2023-05-24T09:39:06.312Z,951.4361
2023-05-24T09:40:08.051Z,951.4572
2023-05-24T09:41:09.749Z,951.4461
2023-05-24T09:42:11.604Z,951.4422
2023-05-24T09:43:13.304Z,951.4384
2023-05-24T09:44:15.028Z,951.4333
2023-05-24T09:45:16.778Z,951.4061
2023-05-24T09:46:18.611Z,951.4233
2023-05-24T09:47:21.390Z,951.4239
2023-05-24T09:48:23.234Z,951.4122
2023-05-24T09:49:24.950Z,951.4050
2023-05-24T09:50:26.706Z,951.4011
2023-05-24T09:51:28.499Z,951.3777
2023-05-24T09:52:30.215Z,951.3661
2023-05-24T09:53:31.949Z,951.3650
2023-05-24T09:54:33.839Z,951.3544
2023-05-24T09:55:35.721Z,951.3500
2023-05-24T09:56:37.445Z,951.3417
2023-05-24T09:57:39.139Z,951.3361
2023-05-24T09:58:40.867Z,951.3328
2023-05-24T09:59:42.623Z,951.3367
2023-05-24T10:00:44.605Z,951.3411
2023-05-24T10:01:46.720Z,951.3417
2023-05-24T10:03:49.789Z,951.3589
2023-05-24T10:04:51.614Z,951.3571
2023-05-24T10:05:53.258Z,951.3605
2023-05-24T10:06:55.030Z,951.3850
2023-05-24T10:07:56.804Z,951.3594
2023-05-24T10:08:58.577Z,951.3822
2023-05-24T10:10:00.291Z,951.3839
2023-05-24T10:11:02.014Z,951.3845
2023-05-24T10:12:03.787Z,951.3689
2023-05-24T10:13:05.534Z,951.3650
2023-05-24T10:14:07.285Z,951.3672
2023-05-24T10:15:09.030Z,951.3650
2023-05-24T10:16:10.809Z,951.3811
2023-05-24T10:17:12.750Z,951.3900
2023-05-24T10:18:14.707Z,951.3906
2023-05-24T10:19:17.474Z,951.3928
2023-05-24T10:20:19.278Z,951.4017
2023-05-24T10:21:21.037Z,951.4083
2023-05-24T10:22:22.762Z,951.3961
2023-05-24T10:23:24.573Z,951.3711
2023-05-24T10:24:26.375Z,951.3795
2023-05-24T10:25:28.091Z,951.3939
2023-05-24T10:26:29.825Z,951.4139
2023-05-24T10:27:31.557Z,951.4228
2023-05-24T10:28:33.322Z,951.4078
2023-05-24T10:29:35.080Z,951.4094
2023-05-24T10:30:36.846Z,951.4311
2023-05-24T10:31:38.654Z,951.4456
2023-05-24T10:32:40.488Z,951.4511
2023-05-24T10:33:42.207Z,951.4417
2023-05-24T10:34:43.925Z,951.4316
2023-05-24T10:35:46.689Z,951.4406
2023-05-24T10:36:48.477Z,951.4450
2023-05-24T10:37:50.297Z,951.4556
2023-05-24T10:38:51.996Z,951.4611
2023-05-24T10:39:53.758Z,951.4578
2023-05-24T10:40:55.510Z,951.4600
2023-05-24T10:41:57.232Z,951.4739
2023-05-24T10:42:58.960Z,951.4966
2023-05-24T10:44:09.870Z,951.4984
2023-05-24T10:45:01.715Z,951.5084
2023-05-24T10:46:03.460Z,951.4906
2023-05-24T10:47:05.213Z,951.4783
2023-05-24T10:48:06.987Z,951.4789
2023-05-24T10:50:09.820Z,951.5250
2023-05-24T10:51:11.661Z,951.5508
2023-05-24T10:52:13.474Z,951.5450
2023-05-24T10:53:15.209Z,951.5572
2023-05-24T10:54:16.949Z,951.5650
2023-05-24T10:55:18.631Z,951.5561
2023-05-24T10:56:20.447Z,951.5561
2023-05-24T10:57:22.190Z,951.5605
2023-05-24T10:58:23.886Z,951.5472
2023-05-24T10:59:25.854Z,951.5684
2023-05-24T11:01:28.623Z,951.5533
2023-05-24T11:02:30.362Z,951.5613
2023-05-24T11:03:32.132Z,951.5684
2023-05-24T11:04:33.872Z,951.5767
2023-05-24T11:05:35.630Z,951.5578
2023-05-24T11:07:38.640Z,951.5767
2023-05-24T11:08:40.381Z,951.5650
2023-05-24T11:09:42.104Z,951.5533
2023-05-24T11:10:44.153Z,951.5611
2023-05-24T11:11:46.148Z,951.5611
2023-05-24T11:12:47.870Z,951.5761
2023-05-24T11:13:49.608Z,951.5728
2023-05-24T11:14:51.436Z,951.5717
2023-05-24T11:15:53.169Z,951.5834
2023-05-24T11:16:55.018Z,951.5767
2023-05-24T11:17:56.763Z,951.5505
2023-05-24T11:18:58.462Z,951.5417
2023-05-24T11:20:00.255Z,951.5417
2023-05-24T11:21:02.009Z,951.5500
2023-05-24T11:22:03.764Z,951.5533
2023-05-24T11:23:05.499Z,951.5594
2023-05-24T11:24:07.317Z,951.5550
2023-05-24T11:25:09.104Z,951.5344
2023-05-24T11:26:10.823Z,951.5217
2023-05-24T11:27:12.611Z,951.5272
2023-05-24T11:28:14.407Z,951.5217
2023-05-24T11:29:16.237Z,951.5134
2023-05-24T11:30:17.938Z,951.5000
2023-05-24T11:31:19.749Z,951.4855
2023-05-24T11:32:21.681Z,951.4861
2023-05-24T11:33:23.397Z,951.4828
2023-05-24T11:34:25.143Z,951.4583
2023-05-24T11:35:26.892Z,951.4434
2023-05-24T11:36:28.801Z,951.4528
2023-05-24T11:37:45.592Z,951.4366
2023-05-24T11:38:33.058Z,951.4344
2023-05-24T11:39:36.052Z,951.4350
2023-05-24T11:40:37.979Z,951.4389
2023-05-24T11:41:41.822Z,951.4456
2023-05-24T11:42:40.445Z,951.4322
2023-05-24T11:43:42.388Z,951.4376
2023-05-24T11:44:52.275Z,951.4322
2023-05-24T11:45:47.471Z,951.4366
2023-05-24T11:46:49.196Z,951.4563
2023-05-24T11:47:51.011Z,951.4411
2023-05-24T11:48:52.732Z,951.4316
2023-05-24T11:49:54.453Z,951.4094
2023-05-24T11:50:56.435Z,951.4028
2023-05-24T11:51:58.288Z,951.4183
2023-05-24T11:53:00.052Z,951.4083
2023-05-24T11:54:01.785Z,951.4050
2023-05-24T11:55:03.502Z,951.4411
2023-05-24T11:56:05.339Z,951.4506
2023-05-24T11:57:07.013Z,951.4489
2023-05-24T11:58:08.777Z,951.4411
2023-05-24T11:59:10.466Z,951.4389
2023-05-24T12:00:12.222Z,951.4139
2023-05-24T12:01:13.989Z,951.4000
2023-05-24T12:02:15.953Z,951.4011
2023-05-24T12:03:17.844Z,951.3861
2023-05-24T12:04:19.802Z,951.3939
2023-05-24T12:05:21.541Z,951.4072
2023-05-24T12:06:23.264Z,951.3745
2023-05-24T12:07:24.961Z,951.3694
2023-05-24T12:08:26.712Z,951.3911
2023-05-24T12:09:28.478Z,951.3528
2023-05-24T12:10:30.197Z,951.3472
2023-05-24T12:11:31.957Z,951.3616